sensor_id;sensor_type;location;lat;lon;timestamp;P1;durP1;ratioP1;P2;durP2;ratioP2
12088;SDS011;6107;49.078;8.578;2023-02-05T00:01:28;8.13;;;4.70;;
12088;SDS011;6107;49.078;8.578;2023-02-05T00:03:53;8.97;;;4.73;;
12088;SDS011;6107;49.078;8.578;2023-02-05T00:06:19;11.93;;;4.67;;
12088;SDS011;6107;49.078;8.578;2023-02-05T00:08:45;9.17;;;4.90;;
12088;SDS011;6107;49.078;8.578;2023-02-05T00:11:10;11.63;;;4.60;;
12088;SDS011;6107;49.078;8.578;2023-02-05T00:13:36;9.03;;;4.93;;
12088;SDS011;6107;49.078;8.578;2023-02-05T00:16:07;10.80;;;4.50;;
12088;SDS011;6107;49.078;8.578;2023-02-05T00:18:34;13.17;;;4.60;;
12088;SDS011;6107;49.078;8.578;2023-02-05T00:20:59;9.67;;;4.57;;
12088;SDS011;6107;49.078;8.578;2023-02-05T00:23:25;8.57;;;4.07;;
12088;SDS011;6107;49.078;8.578;2023-02-05T00:25:50;11.47;;;4.40;;
12088;SDS011;6107;49.078;8.578;2023-02-05T00:28:16;12.77;;;4.50;;
12088;SDS011;6107;49.078;8.578;2023-02-05T00:30:41;13.57;;;4.73;;
12088;SDS011;6107;49.078;8.578;2023-02-05T00:33:07;11.67;;;4.63;;
12088;SDS011;6107;49.078;8.578;2023-02-05T00:35:32;9.00;;;4.37;;
12088;SDS011;6107;49.078;8.578;2023-02-05T00:37:58;9.80;;;4.40;;
12088;SDS011;6107;49.078;8.578;2023-02-05T00:40:23;10.90;;;4.50;;
12088;SDS011;6107;49.078;8.578;2023-02-05T00:42:49;10.87;;;4.53;;
12088;SDS011;6107;49.078;8.578;2023-02-05T00:45:14;7.80;;;4.57;;
12088;SDS011;6107;49.078;8.578;2023-02-05T00:47:40;10.67;;;4.83;;
12088;SDS011;6107;49.078;8.578;2023-02-05T00:50:05;8.60;;;5.20;;
12088;SDS011;6107;49.078;8.578;2023-02-05T00:52:31;12.03;;;4.93;;
12088;SDS011;6107;49.078;8.578;2023-02-05T00:54:56;10.40;;;4.57;;
12088;SDS011;6107;49.078;8.578;2023-02-05T00:57:22;13.00;;;5.53;;
12088;SDS011;6107;49.078;8.578;2023-02-05T00:59:49;14.53;;;5.90;;
12088;SDS011;6107;49.078;8.578;2023-02-05T01:02:16;12.40;;;5.10;;
12088;SDS011;6107;49.078;8.578;2023-02-05T01:04:47;10.27;;;5.80;;
12088;SDS011;6107;49.078;8.578;2023-02-05T01:07:13;11.93;;;4.60;;
12088;SDS011;6107;49.078;8.578;2023-02-05T01:09:38;10.43;;;4.53;;
12088;SDS011;6107;49.078;8.578;2023-02-05T01:12:04;6.80;;;4.33;;
12088;SDS011;6107;49.078;8.578;2023-02-05T01:14:29;8.17;;;4.20;;
12088;SDS011;6107;49.078;8.578;2023-02-05T01:16:55;9.23;;;4.30;;
12088;SDS011;6107;49.078;8.578;2023-02-05T01:19:20;6.53;;;4.47;;
12088;SDS011;6107;49.078;8.578;2023-02-05T01:21:46;10.57;;;5.30;;
12088;SDS011;6107;49.078;8.578;2023-02-05T01:24:11;12.17;;;5.97;;
12088;SDS011;6107;49.078;8.578;2023-02-05T01:26:37;10.40;;;5.10;;
12088;SDS011;6107;49.078;8.578;2023-02-05T01:29:02;11.00;;;5.70;;
12088;SDS011;6107;49.078;8.578;2023-02-05T01:31:28;12.73;;;5.83;;
12088;SDS011;6107;49.078;8.578;2023-02-05T01:33:54;12.17;;;5.73;;
12088;SDS011;6107;49.078;8.578;2023-02-05T01:36:19;16.37;;;6.27;;
12088;SDS011;6107;49.078;8.578;2023-02-05T01:38:45;9.43;;;5.43;;
12088;SDS011;6107;49.078;8.578;2023-02-05T01:41:11;11.20;;;5.03;;
12088;SDS011;6107;49.078;8.578;2023-02-05T01:43:37;8.20;;;4.83;;
12088;SDS011;6107;49.078;8.578;2023-02-05T01:46:05;10.13;;;5.30;;
12088;SDS011;6107;49.078;8.578;2023-02-05T01:48:41;10.77;;;4.87;;
12088;SDS011;6107;49.078;8.578;2023-02-05T01:51:10;15.40;;;4.90;;
12088;SDS011;6107;49.078;8.578;2023-02-05T01:53:38;10.90;;;5.17;;
12088;SDS011;6107;49.078;8.578;2023-02-05T01:56:23;10.53;;;4.87;;
12088;SDS011;6107;49.078;8.578;2023-02-05T01:58:55;13.57;;;5.70;;
12088;SDS011;6107;49.078;8.578;2023-02-05T02:01:24;9.50;;;5.07;;
12088;SDS011;6107;49.078;8.578;2023-02-05T02:03:52;15.03;;;5.23;;
12088;SDS011;6107;49.078;8.578;2023-02-05T02:06:19;12.97;;;6.20;;
12088;SDS011;6107;49.078;8.578;2023-02-05T02:08:45;7.23;;;4.67;;
12088;SDS011;6107;49.078;8.578;2023-02-05T02:11:11;13.53;;;5.60;;
12088;SDS011;6107;49.078;8.578;2023-02-05T02:13:41;12.17;;;4.83;;
12088;SDS011;6107;49.078;8.578;2023-02-05T02:16:07;7.40;;;4.70;;
12088;SDS011;6107;49.078;8.578;2023-02-05T02:18:33;8.93;;;5.17;;
12088;SDS011;6107;49.078;8.578;2023-02-05T02:29:22;8.23;;;4.80;;
12088;SDS011;6107;49.078;8.578;2023-02-05T02:31:56;12.73;;;5.70;;
12088;SDS011;6107;49.078;8.578;2023-02-05T02:34:38;9.23;;;5.20;;
12088;SDS011;6107;49.078;8.578;2023-02-05T02:37:11;12.83;;;6.43;;
12088;SDS011;6107;49.078;8.578;2023-02-05T02:39:52;10.10;;;4.90;;
12088;SDS011;6107;49.078;8.578;2023-02-05T02:43:04;14.07;;;5.17;;
12088;SDS011;6107;49.078;8.578;2023-02-05T02:45:14;9.50;;;5.37;;
12088;SDS011;6107;49.078;8.578;2023-02-05T02:47:50;12.83;;;5.50;;
12088;SDS011;6107;49.078;8.578;2023-02-05T02:50:20;9.30;;;5.43;;
12088;SDS011;6107;49.078;8.578;2023-02-05T02:52:50;9.60;;;4.87;;
12088;SDS011;6107;49.078;8.578;2023-02-05T02:55:17;10.67;;;5.83;;
12088;SDS011;6107;49.078;8.578;2023-02-05T02:57:45;12.57;;;5.23;;
12088;SDS011;6107;49.078;8.578;2023-02-05T03:00:14;7.37;;;4.90;;
12088;SDS011;6107;49.078;8.578;2023-02-05T03:02:44;199.43;;;51.40;;
12088;SDS011;6107;49.078;8.578;2023-02-05T03:05:13;155.30;;;43.43;;
12088;SDS011;6107;49.078;8.578;2023-02-05T03:07:45;49.83;;;18.50;;
12088;SDS011;6107;49.078;8.578;2023-02-05T03:10:49;17.27;;;6.67;;
12088;SDS011;6107;49.078;8.578;2023-02-05T03:13:10;14.20;;;6.47;;
12088;SDS011;6107;49.078;8.578;2023-02-05T03:15:37;17.17;;;7.17;;
12088;SDS011;6107;49.078;8.578;2023-02-05T03:18:05;15.10;;;7.57;;
12088;SDS011;6107;49.078;8.578;2023-02-05T03:20:32;16.63;;;7.80;;
12088;SDS011;6107;49.078;8.578;2023-02-05T03:23:02;20.17;;;8.63;;
12088;SDS011;6107;49.078;8.578;2023-02-05T03:25:28;15.50;;;7.47;;
12088;SDS011;6107;49.078;8.578;2023-02-05T03:27:54;13.80;;;6.40;;
12088;SDS011;6107;49.078;8.578;2023-02-05T03:30:21;16.87;;;7.23;;
12088;SDS011;6107;49.078;8.578;2023-02-05T03:33:29;13.83;;;6.80;;
12088;SDS011;6107;49.078;8.578;2023-02-05T03:36:15;12.80;;;6.43;;
12088;SDS011;6107;49.078;8.578;2023-02-05T03:38:57;12.47;;;6.83;;
12088;SDS011;6107;49.078;8.578;2023-02-05T03:42:02;14.90;;;6.97;;
12088;SDS011;6107;49.078;8.578;2023-02-05T03:45:30;11.63;;;6.60;;
12088;SDS011;6107;49.078;8.578;2023-02-05T03:53:46;14.73;;;7.13;;
12088;SDS011;6107;49.078;8.578;2023-02-05T03:56:15;12.70;;;7.07;;
12088;SDS011;6107;49.078;8.578;2023-02-05T03:58:47;18.27;;;7.53;;
12088;SDS011;6107;49.078;8.578;2023-02-05T04:01:15;18.07;;;7.60;;
12088;SDS011;6107;49.078;8.578;2023-02-05T04:03:42;35.20;;;12.17;;
12088;SDS011;6107;49.078;8.578;2023-02-05T04:06:08;40.23;;;14.60;;
12088;SDS011;6107;49.078;8.578;2023-02-05T04:08:33;12.43;;;6.93;;
12088;SDS011;6107;49.078;8.578;2023-02-05T04:10:59;12.17;;;6.70;;
12088;SDS011;6107;49.078;8.578;2023-02-05T04:13:24;11.60;;;6.03;;
12088;SDS011;6107;49.078;8.578;2023-02-05T04:15:50;14.07;;;6.80;;
12088;SDS011;6107;49.078;8.578;2023-02-05T04:18:16;20.57;;;7.67;;
12088;SDS011;6107;49.078;8.578;2023-02-05T04:20:42;31.60;;;13.03;;
12088;SDS011;6107;49.078;8.578;2023-02-05T04:23:07;17.47;;;8.30;;
12088;SDS011;6107;49.078;8.578;2023-02-05T04:25:35;12.77;;;6.57;;
12088;SDS011;6107;49.078;8.578;2023-02-05T04:28:02;10.83;;;5.77;;
12088;SDS011;6107;49.078;8.578;2023-02-05T04:30:28;15.13;;;7.47;;
12088;SDS011;6107;49.078;8.578;2023-02-05T04:32:53;17.73;;;7.17;;
12088;SDS011;6107;49.078;8.578;2023-02-05T04:35:19;14.40;;;7.13;;
12088;SDS011;6107;49.078;8.578;2023-02-05T04:37:44;12.60;;;6.53;;
12088;SDS011;6107;49.078;8.578;2023-02-05T04:40:10;18.47;;;6.97;;
12088;SDS011;6107;49.078;8.578;2023-02-05T04:42:35;15.33;;;6.73;;
12088;SDS011;6107;49.078;8.578;2023-02-05T04:45:01;12.43;;;6.10;;
12088;SDS011;6107;49.078;8.578;2023-02-05T04:47:29;14.77;;;6.17;;
12088;SDS011;6107;49.078;8.578;2023-02-05T04:49:55;14.43;;;6.67;;
12088;SDS011;6107;49.078;8.578;2023-02-05T04:52:20;15.37;;;7.27;;
12088;SDS011;6107;49.078;8.578;2023-02-05T04:54:46;10.63;;;6.10;;
12088;SDS011;6107;49.078;8.578;2023-02-05T04:57:11;14.57;;;6.43;;
12088;SDS011;6107;49.078;8.578;2023-02-05T04:59:37;14.43;;;6.80;;
12088;SDS011;6107;49.078;8.578;2023-02-05T05:02:02;14.20;;;6.53;;
12088;SDS011;6107;49.078;8.578;2023-02-05T05:04:28;11.93;;;5.80;;
12088;SDS011;6107;49.078;8.578;2023-02-05T05:06:53;15.37;;;6.43;;
12088;SDS011;6107;49.078;8.578;2023-02-05T05:09:19;12.50;;;6.30;;
12088;SDS011;6107;49.078;8.578;2023-02-05T05:11:47;12.67;;;6.70;;
12088;SDS011;6107;49.078;8.578;2023-02-05T05:14:16;15.73;;;7.10;;
12088;SDS011;6107;49.078;8.578;2023-02-05T05:16:42;9.70;;;5.63;;
12088;SDS011;6107;49.078;8.578;2023-02-05T05:19:07;19.47;;;6.90;;
12088;SDS011;6107;49.078;8.578;2023-02-05T05:21:33;13.40;;;7.27;;
12088;SDS011;6107;49.078;8.578;2023-02-05T05:23:58;12.83;;;6.80;;
12088;SDS011;6107;49.078;8.578;2023-02-05T05:26:24;16.83;;;7.00;;
12088;SDS011;6107;49.078;8.578;2023-02-05T05:28:53;16.30;;;7.23;;
12088;SDS011;6107;49.078;8.578;2023-02-05T05:31:19;15.80;;;7.87;;
12088;SDS011;6107;49.078;8.578;2023-02-05T05:33:45;23.03;;;8.17;;
12088;SDS011;6107;49.078;8.578;2023-02-05T05:36:11;14.57;;;6.80;;
12088;SDS011;6107;49.078;8.578;2023-02-05T05:38:36;13.67;;;7.10;;
12088;SDS011;6107;49.078;8.578;2023-02-05T05:41:02;13.87;;;7.10;;
12088;SDS011;6107;49.078;8.578;2023-02-05T05:43:47;15.63;;;7.10;;
12088;SDS011;6107;49.078;8.578;2023-02-05T05:46:14;14.53;;;6.77;;
12088;SDS011;6107;49.078;8.578;2023-02-05T05:48:46;14.87;;;8.07;;
12088;SDS011;6107;49.078;8.578;2023-02-05T05:51:12;14.23;;;6.73;;
12088;SDS011;6107;49.078;8.578;2023-02-05T05:53:38;15.57;;;7.03;;
12088;SDS011;6107;49.078;8.578;2023-02-05T05:56:03;14.40;;;6.53;;
12088;SDS011;6107;49.078;8.578;2023-02-05T05:58:29;12.67;;;6.50;;
12088;SDS011;6107;49.078;8.578;2023-02-05T06:00:54;10.40;;;5.63;;
12088;SDS011;6107;49.078;8.578;2023-02-05T06:03:20;12.73;;;6.10;;
12088;SDS011;6107;49.078;8.578;2023-02-05T06:05:46;16.93;;;8.23;;
12088;SDS011;6107;49.078;8.578;2023-02-05T06:08:11;14.20;;;7.37;;
12088;SDS011;6107;49.078;8.578;2023-02-05T06:10:38;17.63;;;6.63;;
12088;SDS011;6107;49.078;8.578;2023-02-05T06:13:03;13.87;;;6.33;;
12088;SDS011;6107;49.078;8.578;2023-02-05T06:15:29;15.10;;;6.90;;
12088;SDS011;6107;49.078;8.578;2023-02-05T06:17:54;11.23;;;6.63;;
12088;SDS011;6107;49.078;8.578;2023-02-05T06:20:20;12.17;;;6.67;;
12088;SDS011;6107;49.078;8.578;2023-02-05T06:22:45;12.67;;;6.70;;
12088;SDS011;6107;49.078;8.578;2023-02-05T06:25:11;14.13;;;6.90;;
12088;SDS011;6107;49.078;8.578;2023-02-05T06:27:36;11.80;;;6.87;;
12088;SDS011;6107;49.078;8.578;2023-02-05T06:30:02;16.50;;;8.50;;
12088;SDS011;6107;49.078;8.578;2023-02-05T06:32:28;15.57;;;7.30;;
12088;SDS011;6107;49.078;8.578;2023-02-05T06:34:54;13.40;;;6.83;;
12088;SDS011;6107;49.078;8.578;2023-02-05T06:37:19;12.97;;;5.93;;
12088;SDS011;6107;49.078;8.578;2023-02-05T06:39:45;11.50;;;6.53;;
12088;SDS011;6107;49.078;8.578;2023-02-05T06:42:10;13.37;;;6.57;;
12088;SDS011;6107;49.078;8.578;2023-02-05T06:44:35;13.47;;;5.77;;
12088;SDS011;6107;49.078;8.578;2023-02-05T06:47:01;13.93;;;7.27;;
12088;SDS011;6107;49.078;8.578;2023-02-05T06:49:27;11.37;;;7.07;;
12088;SDS011;6107;49.078;8.578;2023-02-05T06:51:52;13.70;;;6.20;;
12088;SDS011;6107;49.078;8.578;2023-02-05T06:54:18;14.40;;;5.97;;
12088;SDS011;6107;49.078;8.578;2023-02-05T06:56:43;17.50;;;6.13;;
12088;SDS011;6107;49.078;8.578;2023-02-05T06:59:09;10.80;;;6.13;;
12088;SDS011;6107;49.078;8.578;2023-02-05T07:01:34;17.83;;;6.63;;
12088;SDS011;6107;49.078;8.578;2023-02-05T07:04:00;14.50;;;6.80;;
12088;SDS011;6107;49.078;8.578;2023-02-05T07:06:26;16.53;;;6.83;;
12088;SDS011;6107;49.078;8.578;2023-02-05T07:08:53;18.67;;;6.90;;
12088;SDS011;6107;49.078;8.578;2023-02-05T07:11:19;18.17;;;7.10;;
12088;SDS011;6107;49.078;8.578;2023-02-05T07:13:45;14.20;;;6.43;;
12088;SDS011;6107;49.078;8.578;2023-02-05T07:16:11;15.90;;;7.37;;
12088;SDS011;6107;49.078;8.578;2023-02-05T07:18:37;13.90;;;7.00;;
12088;SDS011;6107;49.078;8.578;2023-02-05T07:21:06;15.17;;;8.13;;
12088;SDS011;6107;49.078;8.578;2023-02-05T07:23:33;14.50;;;7.47;;
12088;SDS011;6107;49.078;8.578;2023-02-05T07:26:09;17.20;;;8.50;;
12088;SDS011;6107;49.078;8.578;2023-02-05T07:28:39;18.10;;;8.67;;
12088;SDS011;6107;49.078;8.578;2023-02-05T07:31:07;17.33;;;8.57;;
12088;SDS011;6107;49.078;8.578;2023-02-05T07:33:34;25.23;;;9.47;;
12088;SDS011;6107;49.078;8.578;2023-02-05T07:36:01;25.80;;;9.63;;
12088;SDS011;6107;49.078;8.578;2023-02-05T07:38:28;26.27;;;10.23;;
12088;SDS011;6107;49.078;8.578;2023-02-05T07:40:54;19.77;;;10.13;;
12088;SDS011;6107;49.078;8.578;2023-02-05T07:43:19;21.13;;;9.97;;
12088;SDS011;6107;49.078;8.578;2023-02-05T07:45:45;19.53;;;9.30;;
12088;SDS011;6107;49.078;8.578;2023-02-05T07:48:10;23.03;;;9.90;;
12088;SDS011;6107;49.078;8.578;2023-02-05T07:50:36;22.40;;;9.87;;
12088;SDS011;6107;49.078;8.578;2023-02-05T07:53:01;19.20;;;9.53;;
12088;SDS011;6107;49.078;8.578;2023-02-05T07:55:27;22.30;;;9.70;;
12088;SDS011;6107;49.078;8.578;2023-02-05T07:57:52;16.57;;;8.50;;
12088;SDS011;6107;49.078;8.578;2023-02-05T08:00:19;19.97;;;8.90;;
12088;SDS011;6107;49.078;8.578;2023-02-05T08:02:44;17.67;;;8.87;;
12088;SDS011;6107;49.078;8.578;2023-02-05T08:05:10;19.03;;;8.77;;
12088;SDS011;6107;49.078;8.578;2023-02-05T08:07:35;23.17;;;9.83;;
12088;SDS011;6107;49.078;8.578;2023-02-05T08:10:02;15.73;;;7.93;;
12088;SDS011;6107;49.078;8.578;2023-02-05T08:12:28;17.83;;;8.50;;
12088;SDS011;6107;49.078;8.578;2023-02-05T08:14:54;19.63;;;8.63;;
12088;SDS011;6107;49.078;8.578;2023-02-05T08:17:20;19.80;;;8.83;;
12088;SDS011;6107;49.078;8.578;2023-02-05T08:19:45;21.07;;;8.73;;
12088;SDS011;6107;49.078;8.578;2023-02-05T08:22:11;15.73;;;8.67;;
12088;SDS011;6107;49.078;8.578;2023-02-05T08:24:36;21.13;;;9.73;;
12088;SDS011;6107;49.078;8.578;2023-02-05T08:27:02;15.40;;;8.30;;
12088;SDS011;6107;49.078;8.578;2023-02-05T08:29:28;17.40;;;8.50;;
12088;SDS011;6107;49.078;8.578;2023-02-05T08:31:53;16.50;;;8.20;;
12088;SDS011;6107;49.078;8.578;2023-02-05T08:34:19;23.00;;;8.70;;
12088;SDS011;6107;49.078;8.578;2023-02-05T08:36:45;22.07;;;9.90;;
12088;SDS011;6107;49.078;8.578;2023-02-05T08:39:10;17.77;;;8.77;;
12088;SDS011;6107;49.078;8.578;2023-02-05T08:41:36;21.23;;;8.30;;
12088;SDS011;6107;49.078;8.578;2023-02-05T08:44:01;16.73;;;8.10;;
12088;SDS011;6107;49.078;8.578;2023-02-05T08:46:27;18.40;;;7.93;;
12088;SDS011;6107;49.078;8.578;2023-02-05T08:48:53;18.23;;;8.10;;
12088;SDS011;6107;49.078;8.578;2023-02-05T08:51:18;18.73;;;8.23;;
12088;SDS011;6107;49.078;8.578;2023-02-05T08:53:44;14.77;;;7.77;;
12088;SDS011;6107;49.078;8.578;2023-02-05T08:56:10;14.13;;;7.17;;
12088;SDS011;6107;49.078;8.578;2023-02-05T08:58:38;18.20;;;8.10;;
12088;SDS011;6107;49.078;8.578;2023-02-05T09:01:09;18.17;;;7.43;;
12088;SDS011;6107;49.078;8.578;2023-02-05T09:03:36;17.23;;;7.27;;
12088;SDS011;6107;49.078;8.578;2023-02-05T09:06:06;18.37;;;7.97;;
12088;SDS011;6107;49.078;8.578;2023-02-05T09:08:33;14.97;;;6.83;;
12088;SDS011;6107;49.078;8.578;2023-02-05T09:10:59;19.27;;;7.07;;
12088;SDS011;6107;49.078;8.578;2023-02-05T09:13:24;20.00;;;7.00;;
12088;SDS011;6107;49.078;8.578;2023-02-05T09:15:50;19.37;;;7.33;;
12088;SDS011;6107;49.078;8.578;2023-02-05T09:18:16;17.53;;;6.90;;
12088;SDS011;6107;49.078;8.578;2023-02-05T09:20:42;17.20;;;7.10;;
12088;SDS011;6107;49.078;8.578;2023-02-05T09:23:09;19.40;;;7.63;;
12088;SDS011;6107;49.078;8.578;2023-02-05T09:25:36;19.50;;;7.43;;
12088;SDS011;6107;49.078;8.578;2023-02-05T09:28:03;16.13;;;7.57;;
12088;SDS011;6107;49.078;8.578;2023-02-05T09:30:32;19.43;;;6.40;;
12088;SDS011;6107;49.078;8.578;2023-02-05T09:32:57;16.50;;;6.80;;
12088;SDS011;6107;49.078;8.578;2023-02-05T09:35:23;12.73;;;6.37;;
12088;SDS011;6107;49.078;8.578;2023-02-05T09:37:48;16.23;;;5.87;;
12088;SDS011;6107;49.078;8.578;2023-02-05T09:40:21;14.10;;;5.80;;
12088;SDS011;6107;49.078;8.578;2023-02-05T09:45:52;16.60;;;7.03;;
12088;SDS011;6107;49.078;8.578;2023-02-05T09:51:00;15.80;;;6.23;;
12088;SDS011;6107;49.078;8.578;2023-02-05T09:53:27;13.37;;;6.73;;
12088;SDS011;6107;49.078;8.578;2023-02-05T09:55:58;16.90;;;6.30;;
12088;SDS011;6107;49.078;8.578;2023-02-05T09:58:28;12.47;;;5.50;;
12088;SDS011;6107;49.078;8.578;2023-02-05T10:01:03;15.53;;;5.70;;
12088;SDS011;6107;49.078;8.578;2023-02-05T10:06:21;16.17;;;6.30;;
12088;SDS011;6107;49.078;8.578;2023-02-05T10:12:01;12.87;;;5.97;;
12088;SDS011;6107;49.078;8.578;2023-02-05T10:14:44;14.23;;;6.90;;
12088;SDS011;6107;49.078;8.578;2023-02-05T10:20:31;14.13;;;6.30;;
12088;SDS011;6107;49.078;8.578;2023-02-05T10:26:11;14.53;;;6.53;;
12088;SDS011;6107;49.078;8.578;2023-02-05T10:31:38;10.43;;;5.80;;
12088;SDS011;6107;49.078;8.578;2023-02-05T10:34:24;19.30;;;7.37;;
12088;SDS011;6107;49.078;8.578;2023-02-05T10:37:11;15.73;;;7.20;;
12088;SDS011;6107;49.078;8.578;2023-02-05T10:39:42;16.07;;;7.50;;
12088;SDS011;6107;49.078;8.578;2023-02-05T10:47:09;15.77;;;6.93;;
12088;SDS011;6107;49.078;8.578;2023-02-05T10:53:08;15.10;;;7.47;;
12088;SDS011;6107;49.078;8.578;2023-02-05T10:55:33;18.13;;;7.20;;
12088;SDS011;6107;49.078;8.578;2023-02-05T10:58:01;14.40;;;6.40;;
12088;SDS011;6107;49.078;8.578;2023-02-05T11:00:48;20.23;;;7.17;;
12088;SDS011;6107;49.078;8.578;2023-02-05T11:03:17;19.33;;;7.50;;
12088;SDS011;6107;49.078;8.578;2023-02-05T11:05:46;16.67;;;7.37;;
12088;SDS011;6107;49.078;8.578;2023-02-05T11:11:02;17.07;;;6.90;;
12088;SDS011;6107;49.078;8.578;2023-02-05T11:13:29;16.30;;;6.83;;
12088;SDS011;6107;49.078;8.578;2023-02-05T11:16:03;16.67;;;7.50;;
12088;SDS011;6107;49.078;8.578;2023-02-05T11:18:34;15.20;;;7.67;;
12088;SDS011;6107;49.078;8.578;2023-02-05T11:21:05;22.80;;;7.50;;
12088;SDS011;6107;49.078;8.578;2023-02-05T11:23:32;15.50;;;6.83;;
12088;SDS011;6107;49.078;8.578;2023-02-05T11:26:07;19.27;;;8.03;;
12088;SDS011;6107;49.078;8.578;2023-02-05T11:28:44;14.33;;;6.83;;
12088;SDS011;6107;49.078;8.578;2023-02-05T11:31:17;15.70;;;7.43;;
12088;SDS011;6107;49.078;8.578;2023-02-05T11:33:52;21.90;;;7.30;;
12088;SDS011;6107;49.078;8.578;2023-02-05T11:36:33;17.13;;;6.80;;
12088;SDS011;6107;49.078;8.578;2023-02-05T11:39:00;15.57;;;7.93;;
12088;SDS011;6107;49.078;8.578;2023-02-05T11:41:36;18.37;;;7.30;;
12088;SDS011;6107;49.078;8.578;2023-02-05T11:46:54;17.07;;;8.47;;
12088;SDS011;6107;49.078;8.578;2023-02-05T11:49:24;17.23;;;8.27;;
12088;SDS011;6107;49.078;8.578;2023-02-05T11:51:55;22.20;;;8.47;;
12088;SDS011;6107;49.078;8.578;2023-02-05T11:57:04;25.60;;;8.90;;
12088;SDS011;6107;49.078;8.578;2023-02-05T11:59:53;18.33;;;9.87;;
12088;SDS011;6107;49.078;8.578;2023-02-05T12:07:45;19.33;;;9.13;;
12088;SDS011;6107;49.078;8.578;2023-02-05T12:10:15;18.23;;;11.57;;
12088;SDS011;6107;49.078;8.578;2023-02-05T12:12:53;21.63;;;10.87;;
12088;SDS011;6107;49.078;8.578;2023-02-05T12:15:27;24.23;;;11.50;;
12088;SDS011;6107;49.078;8.578;2023-02-05T12:18:05;42.67;;;20.87;;
12088;SDS011;6107;49.078;8.578;2023-02-05T12:20:46;34.10;;;18.67;;
12088;SDS011;6107;49.078;8.578;2023-02-05T12:26:07;28.73;;;15.87;;
12088;SDS011;6107;49.078;8.578;2023-02-05T12:32:55;24.83;;;12.13;;
12088;SDS011;6107;49.078;8.578;2023-02-05T12:40:29;28.83;;;13.20;;
12088;SDS011;6107;49.078;8.578;2023-02-05T12:49:32;22.03;;;10.90;;
12088;SDS011;6107;49.078;8.578;2023-02-05T12:58:13;20.27;;;11.07;;
12088;SDS011;6107;49.078;8.578;2023-02-05T13:00:45;24.93;;;11.30;;
12088;SDS011;6107;49.078;8.578;2023-02-05T13:03:24;19.80;;;11.37;;
12088;SDS011;6107;49.078;8.578;2023-02-05T13:05:57;20.23;;;10.37;;
12088;SDS011;6107;49.078;8.578;2023-02-05T13:08:35;19.03;;;11.10;;
12088;SDS011;6107;49.078;8.578;2023-02-05T13:11:15;24.17;;;12.90;;
12088;SDS011;6107;49.078;8.578;2023-02-05T13:16:55;22.70;;;13.00;;
12088;SDS011;6107;49.078;8.578;2023-02-05T13:19:31;18.30;;;10.60;;
12088;SDS011;6107;49.078;8.578;2023-02-05T13:22:18;19.60;;;10.30;;
12088;SDS011;6107;49.078;8.578;2023-02-05T13:25:13;20.67;;;11.53;;
12088;SDS011;6107;49.078;8.578;2023-02-05T13:28:01;22.03;;;10.80;;
12088;SDS011;6107;49.078;8.578;2023-02-05T13:31:08;19.20;;;10.93;;
12088;SDS011;6107;49.078;8.578;2023-02-05T13:33:55;18.60;;;10.33;;
12088;SDS011;6107;49.078;8.578;2023-02-05T13:50:11;16.00;;;9.17;;
12088;SDS011;6107;49.078;8.578;2023-02-05T13:53:04;18.13;;;9.90;;
12088;SDS011;6107;49.078;8.578;2023-02-05T13:58:47;13.37;;;8.10;;
12088;SDS011;6107;49.078;8.578;2023-02-05T14:03:53;14.83;;;8.63;;
12088;SDS011;6107;49.078;8.578;2023-02-05T14:06:29;13.20;;;7.57;;
12088;SDS011;6107;49.078;8.578;2023-02-05T14:09:00;15.10;;;7.47;;
12088;SDS011;6107;49.078;8.578;2023-02-05T14:11:41;12.87;;;7.47;;
12088;SDS011;6107;49.078;8.578;2023-02-05T14:16:41;15.40;;;9.10;;
12088;SDS011;6107;49.078;8.578;2023-02-05T14:24:00;11.13;;;6.93;;
12088;SDS011;6107;49.078;8.578;2023-02-05T14:26:58;12.90;;;7.53;;
12088;SDS011;6107;49.078;8.578;2023-02-05T14:32:09;13.57;;;7.57;;
12088;SDS011;6107;49.078;8.578;2023-02-05T14:37:02;16.13;;;8.20;;
12088;SDS011;6107;49.078;8.578;2023-02-05T14:39:29;12.67;;;7.87;;
12088;SDS011;6107;49.078;8.578;2023-02-05T14:41:57;17.20;;;8.63;;
12088;SDS011;6107;49.078;8.578;2023-02-05T14:44:36;13.77;;;8.33;;
12088;SDS011;6107;49.078;8.578;2023-02-05T14:47:24;12.63;;;8.43;;
12088;SDS011;6107;49.078;8.578;2023-02-05T14:50:00;16.13;;;9.20;;
12088;SDS011;6107;49.078;8.578;2023-02-05T14:52:36;15.57;;;8.83;;
12088;SDS011;6107;49.078;8.578;2023-02-05T14:55:14;17.63;;;8.50;;
12088;SDS011;6107;49.078;8.578;2023-02-05T14:57:52;12.70;;;8.27;;
12088;SDS011;6107;49.078;8.578;2023-02-05T15:02:54;15.63;;;8.43;;
12088;SDS011;6107;49.078;8.578;2023-02-05T15:08:14;18.43;;;11.17;;
12088;SDS011;6107;49.078;8.578;2023-02-05T15:16:45;18.80;;;9.97;;
12088;SDS011;6107;49.078;8.578;2023-02-05T15:19:11;17.33;;;10.53;;
12088;SDS011;6107;49.078;8.578;2023-02-05T15:21:48;18.03;;;11.43;;
12088;SDS011;6107;49.078;8.578;2023-02-05T15:24:19;17.20;;;10.17;;
12088;SDS011;6107;49.078;8.578;2023-02-05T15:26:54;19.27;;;10.87;;
12088;SDS011;6107;49.078;8.578;2023-02-05T15:29:26;17.40;;;10.33;;
12088;SDS011;6107;49.078;8.578;2023-02-05T15:32:00;15.33;;;9.53;;
12088;SDS011;6107;49.078;8.578;2023-02-05T15:34:31;18.57;;;9.60;;
12088;SDS011;6107;49.078;8.578;2023-02-05T15:42:46;16.40;;;9.30;;
12088;SDS011;6107;49.078;8.578;2023-02-05T15:45:17;16.07;;;9.77;;
12088;SDS011;6107;49.078;8.578;2023-02-05T15:50:22;14.90;;;9.50;;
12088;SDS011;6107;49.078;8.578;2023-02-05T15:52:48;16.70;;;10.57;;
12088;SDS011;6107;49.078;8.578;2023-02-05T15:55:15;17.10;;;10.03;;
12088;SDS011;6107;49.078;8.578;2023-02-05T15:57:44;16.63;;;10.40;;
12088;SDS011;6107;49.078;8.578;2023-02-05T16:00:24;12.20;;;7.27;;
12088;SDS011;6107;49.078;8.578;2023-02-05T16:02:53;24.73;;;13.33;;
12088;SDS011;6107;49.078;8.578;2023-02-05T16:05:21;19.30;;;11.40;;
12088;SDS011;6107;49.078;8.578;2023-02-05T16:07:48;17.03;;;11.27;;
12088;SDS011;6107;49.078;8.578;2023-02-05T16:10:28;16.23;;;9.70;;
12088;SDS011;6107;49.078;8.578;2023-02-05T16:15:22;13.37;;;9.50;;
12088;SDS011;6107;49.078;8.578;2023-02-05T16:17:51;15.23;;;9.97;;
12088;SDS011;6107;49.078;8.578;2023-02-05T16:22:58;17.40;;;10.30;;
12088;SDS011;6107;49.078;8.578;2023-02-05T16:25:42;17.77;;;10.13;;
12088;SDS011;6107;49.078;8.578;2023-02-05T16:28:23;19.20;;;10.73;;
12088;SDS011;6107;49.078;8.578;2023-02-05T16:30:53;18.13;;;10.80;;
12088;SDS011;6107;49.078;8.578;2023-02-05T16:33:31;20.43;;;12.33;;
12088;SDS011;6107;49.078;8.578;2023-02-05T16:36:00;18.73;;;11.37;;
12088;SDS011;6107;49.078;8.578;2023-02-05T16:38:29;20.03;;;10.67;;
12088;SDS011;6107;49.078;8.578;2023-02-05T16:40:59;19.47;;;11.73;;
12088;SDS011;6107;49.078;8.578;2023-02-05T16:43:46;20.27;;;11.17;;
12088;SDS011;6107;49.078;8.578;2023-02-05T16:52:12;25.93;;;15.17;;
12088;SDS011;6107;49.078;8.578;2023-02-05T16:59:25;24.70;;;15.40;;
12088;SDS011;6107;49.078;8.578;2023-02-05T17:01:54;25.30;;;15.13;;
12088;SDS011;6107;49.078;8.578;2023-02-05T17:04:26;22.73;;;13.47;;
12088;SDS011;6107;49.078;8.578;2023-02-05T17:07:00;24.23;;;13.70;;
12088;SDS011;6107;49.078;8.578;2023-02-05T17:09:34;20.47;;;13.67;;
12088;SDS011;6107;49.078;8.578;2023-02-05T17:14:53;24.10;;;15.87;;
12088;SDS011;6107;49.078;8.578;2023-02-05T17:17:23;20.37;;;14.10;;
12088;SDS011;6107;49.078;8.578;2023-02-05T17:23:04;15.67;;;10.47;;
12088;SDS011;6107;49.078;8.578;2023-02-05T17:28:23;16.97;;;10.43;;
12088;SDS011;6107;49.078;8.578;2023-02-05T17:30:50;19.47;;;11.27;;
12088;SDS011;6107;49.078;8.578;2023-02-05T17:33:18;15.80;;;10.43;;
12088;SDS011;6107;49.078;8.578;2023-02-05T17:35:49;12.33;;;7.73;;
12088;SDS011;6107;49.078;8.578;2023-02-05T17:38:15;11.60;;;7.67;;
12088;SDS011;6107;49.078;8.578;2023-02-05T17:40:41;14.57;;;8.77;;
12088;SDS011;6107;49.078;8.578;2023-02-05T17:43:07;14.70;;;8.57;;